createdAt,value
2018-04-07T00:00:29.270Z,6.77
2018-04-07T00:02:55.061Z,4.10
2018-04-07T00:05:20.850Z,11.43
2018-04-07T00:07:46.653Z,5.60
2018-04-07T00:10:12.435Z,6.00
2018-04-07T00:12:38.215Z,12.80
2018-04-07T00:15:04.012Z,10.93
2018-04-07T00:17:29.820Z,40.40
2018-04-07T00:19:55.627Z,25.23
2018-04-07T00:22:21.452Z,53.07
2018-04-07T00:24:47.275Z,6.17
2018-04-07T00:27:13.083Z,40.40
2018-04-07T00:29:38.879Z,38.47
2018-04-07T00:32:04.698Z,25.60
2018-04-07T00:34:30.510Z,31.93
2018-04-07T00:36:56.327Z,21.07
2018-04-07T00:39:22.144Z,25.10
2018-04-07T00:41:47.940Z,41.73
2018-04-07T00:44:13.730Z,22.40
2018-04-07T00:46:39.533Z,27.33
2018-04-07T00:49:05.332Z,15.17
2018-04-07T00:51:31.123Z,28.90
2018-04-07T00:53:57.053Z,17.53
2018-04-07T00:56:22.840Z,3.47
2018-04-07T00:58:48.632Z,3.80
2018-04-07T01:01:14.466Z,29.20
2018-04-07T01:03:40.247Z,10.90
2018-04-07T01:06:06.054Z,58.20
2018-04-07T01:08:31.864Z,9.13
2018-04-07T01:10:57.667Z,6.77
2018-04-07T01:13:23.475Z,7.97
2018-04-07T01:15:49.300Z,14.07
2018-04-07T01:18:15.099Z,7.37
2018-04-07T01:20:40.896Z,7.73
2018-04-07T01:23:06.698Z,5.10
2018-04-07T01:25:32.487Z,21.33
2018-04-07T01:27:58.300Z,3.80
2018-04-07T01:30:24.087Z,4.27
2018-04-07T01:32:49.885Z,2.73
2018-04-07T01:35:15.695Z,3.60
2018-04-07T01:37:41.515Z,3.93
2018-04-07T01:40:07.318Z,3.30
2018-04-07T01:42:33.171Z,3.97
2018-04-07T01:44:58.951Z,2.70
2018-04-07T01:47:24.755Z,3.10
2018-04-07T01:49:50.559Z,2.70
2018-04-07T01:52:16.354Z,2.83
2018-04-07T01:54:42.173Z,3.50
2018-04-07T01:57:07.970Z,4.40
2018-04-07T01:59:33.755Z,2.70
2018-04-07T02:01:59.556Z,4.00
2018-04-07T02:04:25.375Z,2.97
2018-04-07T02:06:51.194Z,3.03
2018-04-07T02:09:16.983Z,3.67
2018-04-07T02:11:42.766Z,9.53
2018-04-07T02:14:08.575Z,4.90
2018-04-07T02:16:34.396Z,5.10
2018-04-07T02:19:00.207Z,2.20
2018-04-07T02:21:26.008Z,2.40
2018-04-07T02:23:51.786Z,3.87
2018-04-07T02:26:17.597Z,5.40
2018-04-07T02:28:43.394Z,4.20
2018-04-07T02:31:09.179Z,2.50
2018-04-07T02:33:35.018Z,10.17
2018-04-07T02:36:00.815Z,3.40
2018-04-07T02:38:26.587Z,5.47
2018-04-07T02:40:52.392Z,5.63
2018-04-07T02:43:18.222Z,3.10
2018-04-07T02:45:44.015Z,4.13
2018-04-07T02:48:10.208Z,4.77
2018-04-07T02:50:36.025Z,2.93
2018-04-07T02:53:01.851Z,2.63
2018-04-07T02:55:27.647Z,3.57
2018-04-07T02:57:53.443Z,3.30
2018-04-07T03:00:19.228Z,3.60
2018-04-07T03:02:45.043Z,4.83
2018-04-07T03:05:10.821Z,2.63
2018-04-07T03:07:36.607Z,3.20
2018-04-07T03:10:02.470Z,2.90
2018-04-07T03:12:28.245Z,5.37
2018-04-07T03:14:54.030Z,3.00
2018-04-07T03:17:19.839Z,2.57
2018-04-07T03:19:45.618Z,3.20
2018-04-07T03:22:11.460Z,2.87
2018-04-07T03:24:37.258Z,3.33
2018-04-07T03:27:03.055Z,3.00
2018-04-07T03:29:28.839Z,2.90
2018-04-07T03:31:54.718Z,3.87
2018-04-07T03:34:20.526Z,2.67
2018-04-07T03:36:46.322Z,2.30
2018-04-07T03:39:12.143Z,3.17
2018-04-07T03:41:37.924Z,5.00
2018-04-07T03:44:03.721Z,4.80
2018-04-07T03:46:29.567Z,3.80
2018-04-07T03:48:55.381Z,2.80
2018-04-07T03:51:21.194Z,4.97
2018-04-07T03:53:47.296Z,3.00
2018-04-07T03:56:13.099Z,4.25
2018-04-07T03:58:38.891Z,2.50
2018-04-07T04:01:04.747Z,3.73
2018-04-07T04:03:30.585Z,3.87
2018-04-07T04:05:56.603Z,2.97
2018-04-07T04:08:22.414Z,5.10
2018-04-07T04:10:48.217Z,3.00
2018-04-07T04:13:14.011Z,2.93
2018-04-07T04:15:39.803Z,3.40
2018-04-07T04:18:05.879Z,2.73
2018-04-07T04:20:31.679Z,5.12
2018-04-07T04:22:57.467Z,3.40
2018-04-07T04:25:23.262Z,3.23
2018-04-07T04:27:49.069Z,3.30
2018-04-07T04:30:14.855Z,3.50
2018-04-07T04:32:40.647Z,2.43
2018-04-07T04:35:06.430Z,4.00
2018-04-07T04:37:32.236Z,2.70
2018-04-07T04:39:58.257Z,2.80
2018-04-07T04:42:24.074Z,3.25
2018-04-07T04:44:49.856Z,3.80
2018-04-07T04:47:15.659Z,3.00
2018-04-07T04:49:41.450Z,4.77
2018-04-07T04:52:07.255Z,2.63
2018-04-07T04:54:33.062Z,3.20
2018-04-07T04:56:58.843Z,4.00
2018-04-07T04:59:25.008Z,3.20
2018-04-07T05:01:50.820Z,3.37
2018-04-07T05:04:16.606Z,4.47
2018-04-07T05:06:42.402Z,3.17
2018-04-07T05:09:08.186Z,3.67
2018-04-07T05:11:33.966Z,3.43
2018-04-07T05:13:59.767Z,2.43
2018-04-07T05:16:25.577Z,3.20
2018-04-07T05:18:51.527Z,3.20
2018-04-07T05:21:17.683Z,3.30
2018-04-07T05:23:43.496Z,2.92
2018-04-07T05:26:09.288Z,2.90
2018-04-07T05:28:35.100Z,3.10
2018-04-07T05:31:01.020Z,2.60
2018-04-07T05:33:26.859Z,2.20
2018-04-07T05:35:52.654Z,3.47
2018-04-07T05:38:18.475Z,3.20
2018-04-07T05:40:44.275Z,5.57
2018-04-07T05:43:10.068Z,3.70
2018-04-07T05:45:36.480Z,2.90
2018-04-07T05:48:09.338Z,2.75
2018-04-07T05:50:35.311Z,3.53
2018-04-07T05:53:01.135Z,2.63
2018-04-07T05:55:26.960Z,29.13
2018-04-07T05:57:52.769Z,3.30
2018-04-07T06:00:18.592Z,3.10
2018-04-07T06:02:45.299Z,3.83
2018-04-07T06:05:11.173Z,2.60
2018-04-07T06:07:36.984Z,2.57
2018-04-07T06:10:02.814Z,2.83
2018-04-07T06:12:30.447Z,3.67
2018-04-07T06:14:56.376Z,3.30
2018-04-07T06:17:22.207Z,2.70
2018-04-07T06:19:48.035Z,2.67
2018-04-07T06:22:13.871Z,3.93
2018-04-07T06:24:40.172Z,3.70
2018-04-07T06:27:07.991Z,3.07
2018-04-07T06:29:33.817Z,3.17
2018-04-07T06:31:59.746Z,3.03
2018-04-07T06:34:25.572Z,2.20
2018-04-07T06:36:53.339Z,3.03
2018-04-07T06:39:20.440Z,2.57
2018-04-07T06:41:46.890Z,3.00
2018-04-07T06:44:13.401Z,2.93
2018-04-07T06:46:39.531Z,3.13
2018-04-07T06:49:05.700Z,2.70
2018-04-07T06:51:33.466Z,3.00
2018-04-07T06:53:59.520Z,3.13
2018-04-07T06:56:25.600Z,3.50
2018-04-07T06:58:51.481Z,4.07
2018-04-07T07:01:17.580Z,3.60
2018-04-07T07:03:43.689Z,4.00
2018-04-07T07:06:09.521Z,3.30
2018-04-07T07:08:35.363Z,4.10
2018-04-07T07:11:01.191Z,3.13
2018-04-07T07:13:26.979Z,2.93
2018-04-07T07:15:52.759Z,5.17
2018-04-07T07:18:18.602Z,3.57
2018-04-07T07:20:44.416Z,4.13
2018-04-07T07:23:10.212Z,3.90
2018-04-07T07:25:36.045Z,4.20
2018-04-07T07:28:01.832Z,3.43
2018-04-07T07:30:27.622Z,3.53
2018-04-07T07:32:53.614Z,5.80
2018-04-07T07:35:19.411Z,3.33
2018-04-07T07:37:45.211Z,3.77
2018-04-07T07:40:11.008Z,3.70
2018-04-07T07:42:36.823Z,3.50
2018-04-07T07:45:02.648Z,3.83
2018-04-07T07:47:28.454Z,4.00
2018-04-07T07:49:54.258Z,4.23
2018-04-07T07:52:20.051Z,4.00
2018-04-07T07:54:45.869Z,4.77
2018-04-07T07:57:11.674Z,4.13
2018-04-07T07:59:37.464Z,4.83
2018-04-07T08:02:03.296Z,4.03
2018-04-07T08:04:29.120Z,4.13
2018-04-07T08:06:54.920Z,5.00
2018-04-07T08:09:21.055Z,5.80
2018-04-07T08:11:46.842Z,4.33
2018-04-07T08:14:12.641Z,3.70
2018-04-07T08:16:38.437Z,3.80
2018-04-07T08:19:04.233Z,5.23
2018-04-07T08:21:30.051Z,3.33
2018-04-07T08:23:55.827Z,3.83
2018-04-07T08:26:21.616Z,4.83
2018-04-07T08:28:47.425Z,3.47
2018-04-07T08:31:13.232Z,4.20
2018-04-07T08:33:39.032Z,4.60
2018-04-07T08:36:04.814Z,4.40
2018-04-07T08:38:30.652Z,5.87
2018-04-07T08:40:56.471Z,5.33
2018-04-07T08:43:22.256Z,5.80
2018-04-07T08:45:48.060Z,6.00
2018-04-07T08:48:13.841Z,5.80
2018-04-07T08:50:39.655Z,7.90
2018-04-07T08:53:05.442Z,5.53
2018-04-07T08:55:31.374Z,5.23
2018-04-07T08:57:57.186Z,6.47
2018-04-07T09:00:22.994Z,7.17
2018-04-07T09:02:48.791Z,7.23
2018-04-07T09:05:14.607Z,5.20
2018-04-07T09:07:40.402Z,5.23
2018-04-07T09:10:06.193Z,5.03
2018-04-07T09:12:32.022Z,5.40
2018-04-07T09:14:57.803Z,6.57
2018-04-07T09:17:23.591Z,3.37
2018-04-07T09:19:49.425Z,6.10
2018-04-07T09:22:15.214Z,10.10
2018-04-07T09:24:41.001Z,9.53
2018-04-07T09:27:06.820Z,5.10
2018-04-07T09:29:32.606Z,16.43
2018-04-07T09:31:58.396Z,9.07
2018-04-07T09:34:24.228Z,11.30
2018-04-07T09:36:50.019Z,11.17
2018-04-07T09:39:15.829Z,6.97
2018-04-07T09:41:41.649Z,7.67
2018-04-07T09:44:07.456Z,5.63
2018-04-07T09:46:33.264Z,6.60
2018-04-07T09:48:59.077Z,6.10
2018-04-07T09:51:24.863Z,6.00
2018-04-07T09:53:50.923Z,9.73
2018-04-07T09:56:16.714Z,6.87
2018-04-07T09:58:42.518Z,8.93
2018-04-07T10:01:08.355Z,5.20
2018-04-07T10:03:34.155Z,5.10
2018-04-07T10:05:59.940Z,5.23
2018-04-07T10:08:25.760Z,6.70
2018-04-07T10:10:51.557Z,5.23
2018-04-07T10:13:17.343Z,7.07
2018-04-07T10:15:43.154Z,4.73
2018-04-07T10:18:08.937Z,6.30
2018-04-07T10:20:34.732Z,5.87
2018-04-07T10:23:00.536Z,12.47
2018-04-07T10:25:26.358Z,9.43
2018-04-07T10:27:52.148Z,6.40
2018-04-07T10:30:17.971Z,14.77
2018-04-07T10:32:43.783Z,12.20
2018-04-07T10:35:09.570Z,6.23
2018-04-07T10:37:35.363Z,7.80
2018-04-07T10:40:01.137Z,6.20
2018-04-07T10:42:26.950Z,5.87
2018-04-07T10:44:52.741Z,8.10
2018-04-07T10:47:18.567Z,9.40
2018-04-07T10:49:44.354Z,8.77
2018-04-07T10:52:10.151Z,4.53
2018-04-07T10:54:36.193Z,6.67
2018-04-07T10:57:02.002Z,5.27
2018-04-07T10:59:27.782Z,5.77
2018-04-07T11:01:53.595Z,7.33
2018-04-07T11:04:19.376Z,7.70
2018-04-07T11:06:45.173Z,3.57
2018-04-07T11:09:10.985Z,5.87
2018-04-07T11:11:36.778Z,5.50
2018-04-07T11:14:02.588Z,6.90
2018-04-07T11:16:28.386Z,7.00
2018-04-07T11:21:26.827Z,9.10
2018-04-07T11:23:52.627Z,6.70
2018-04-07T11:26:18.447Z,4.67
2018-04-07T11:28:44.259Z,7.60
2018-04-07T11:31:10.046Z,8.20
2018-04-07T11:33:35.858Z,6.63
2018-04-07T11:36:01.652Z,10.53
2018-04-07T11:38:27.455Z,8.33
2018-04-07T11:40:53.247Z,8.27
2018-04-07T11:43:19.276Z,7.67
2018-04-07T11:45:45.058Z,11.60
2018-04-07T11:48:10.875Z,7.73
2018-04-07T11:50:36.716Z,7.47
2018-04-07T11:53:02.522Z,7.20
2018-04-07T11:55:28.308Z,8.30
2018-04-07T11:57:54.122Z,8.20
2018-04-07T12:00:19.923Z,8.13
2018-04-07T12:02:45.726Z,9.40
2018-04-07T12:05:11.521Z,19.70
2018-04-07T12:07:37.319Z,13.80
2018-04-07T12:10:03.259Z,21.37
2018-04-07T12:12:29.053Z,8.07
2018-04-07T12:14:54.873Z,8.60
2018-04-07T12:17:20.695Z,16.20
2018-04-07T12:19:46.499Z,8.27
2018-04-07T12:22:12.306Z,8.33
2018-04-07T12:24:38.337Z,8.70
2018-04-07T12:27:04.142Z,8.10
2018-04-07T12:29:29.926Z,8.00
2018-04-07T12:31:55.746Z,8.60
2018-04-07T12:34:21.539Z,8.57
2018-04-07T12:36:47.326Z,8.33
2018-04-07T12:39:13.157Z,8.20
2018-04-07T12:41:38.950Z,9.77
2018-04-07T12:44:04.767Z,7.57
2018-04-07T12:46:30.592Z,8.80
2018-04-07T12:48:56.373Z,9.80
2018-04-07T12:51:22.163Z,8.77
2018-04-07T12:53:48.070Z,7.87
2018-04-07T12:56:13.871Z,8.30
2018-04-07T12:58:39.677Z,8.87
2018-04-07T13:01:05.488Z,7.43
2018-04-07T13:03:31.304Z,8.77
2018-04-07T13:05:57.095Z,8.73
2018-04-07T13:08:22.893Z,8.43
2018-04-07T13:10:48.679Z,7.70
2018-04-07T13:13:14.557Z,7.50
2018-04-07T13:15:40.349Z,6.60
2018-04-07T13:18:06.135Z,7.60
2018-04-07T13:20:31.981Z,8.03
2018-04-07T13:22:57.784Z,7.63
2018-04-07T13:25:23.586Z,7.50
2018-04-07T13:27:49.375Z,7.80
2018-04-07T13:30:15.162Z,7.40
2018-04-07T13:32:40.943Z,7.90
2018-04-07T13:35:06.779Z,7.90
2018-04-07T13:37:32.582Z,7.83
2018-04-07T13:39:58.371Z,6.63
2018-04-07T13:42:24.159Z,8.13
2018-04-07T13:44:50.024Z,8.40
2018-04-07T13:47:15.831Z,8.93
2018-04-07T13:49:41.642Z,9.00
2018-04-07T13:52:07.424Z,9.10
2018-04-07T13:54:33.223Z,8.30
2018-04-07T13:56:59.060Z,9.50
2018-04-07T13:59:24.859Z,8.00
2018-04-07T14:01:50.646Z,7.13
2018-04-07T14:04:16.427Z,8.47
2018-04-07T14:06:42.221Z,7.97
2018-04-07T14:09:08.048Z,8.07
2018-04-07T14:11:33.855Z,8.53
2018-04-07T14:13:59.668Z,7.37
2018-04-07T14:16:25.461Z,7.57
2018-04-07T14:18:51.281Z,8.10
2018-04-07T14:21:17.079Z,7.73
2018-04-07T14:23:42.900Z,9.30
2018-04-07T14:26:08.690Z,7.90
2018-04-07T14:28:34.518Z,9.87
2018-04-07T14:31:00.323Z,12.83
2018-04-07T14:33:26.119Z,10.37
2018-04-07T14:35:51.907Z,13.40
2018-04-07T14:38:17.706Z,8.40
2018-04-07T14:40:43.506Z,7.80
2018-04-07T14:43:09.301Z,9.90
2018-04-07T14:45:35.119Z,8.70
2018-04-07T14:48:00.900Z,7.67
2018-04-07T14:50:26.693Z,9.93
2018-04-07T14:52:52.507Z,7.97
2018-04-07T14:55:18.320Z,20.23
2018-04-07T14:57:44.113Z,32.50
2018-04-07T15:00:09.907Z,26.20
2018-04-07T15:02:35.708Z,27.97
2018-04-07T15:05:01.519Z,15.87
2018-04-07T15:07:27.330Z,9.83
2018-04-07T15:09:53.141Z,27.50
2018-04-07T15:12:18.926Z,8.37
2018-04-07T15:14:44.765Z,8.67
2018-04-07T15:17:10.572Z,8.30
2018-04-07T15:19:36.364Z,7.90
2018-04-07T15:22:02.173Z,8.20
2018-04-07T15:24:27.983Z,9.37
2018-04-07T15:26:53.819Z,9.37
2018-04-07T15:29:19.623Z,9.60
2018-04-07T15:31:45.419Z,8.47
2018-04-07T15:34:11.231Z,9.87
2018-04-07T15:36:37.063Z,7.83
2018-04-07T15:39:02.898Z,8.63
2018-04-07T15:41:28.679Z,8.73
2018-04-07T15:43:54.466Z,10.13
2018-04-07T15:46:20.257Z,13.90
2018-04-07T15:48:46.060Z,7.63
2018-04-07T15:51:11.856Z,11.40
2018-04-07T15:53:37.662Z,8.63
2018-04-07T15:56:03.472Z,8.17
2018-04-07T15:58:30.078Z,9.63
2018-04-07T16:00:56.145Z,11.90
2018-04-07T16:03:21.933Z,14.37
2018-04-07T16:05:47.760Z,12.47
2018-04-07T16:08:13.580Z,12.00
2018-04-07T16:10:39.386Z,12.60
2018-04-07T16:13:05.198Z,9.93
2018-04-07T16:15:30.980Z,10.80
2018-04-07T16:17:56.773Z,15.40
2018-04-07T16:20:22.603Z,11.53
2018-04-07T16:22:48.399Z,17.43
2018-04-07T16:25:14.237Z,18.50
2018-04-07T16:27:40.016Z,13.73
2018-04-07T16:30:05.842Z,20.60
2018-04-07T16:32:31.902Z,12.77
2018-04-07T16:34:57.719Z,14.93
2018-04-07T16:37:23.536Z,27.37
2018-04-07T16:39:49.456Z,24.83
2018-04-07T16:42:15.239Z,25.87
2018-04-07T16:44:41.033Z,21.83
2018-04-07T16:47:06.828Z,15.30
2018-04-07T16:49:32.631Z,18.50
2018-04-07T16:51:58.452Z,18.27
2018-04-07T16:54:24.230Z,13.50
2018-04-07T16:56:50.078Z,15.60
2018-04-07T16:59:15.870Z,12.13
2018-04-07T17:01:41.667Z,13.77
2018-04-07T17:04:07.531Z,60.13
2018-04-07T17:06:33.364Z,32.53
2018-04-07T17:08:59.165Z,23.67
2018-04-07T17:11:24.958Z,41.50
2018-04-07T17:13:51.004Z,14.93
2018-04-07T17:16:16.804Z,22.50
2018-04-07T17:18:42.628Z,21.60
2018-04-07T17:21:08.447Z,23.43
2018-04-07T17:23:34.251Z,25.87
2018-04-07T17:26:00.027Z,18.60
2018-04-07T17:28:25.843Z,16.67
2018-04-07T17:30:51.617Z,14.67
2018-04-07T17:33:17.435Z,18.70
2018-04-07T17:35:43.467Z,18.20
2018-04-07T17:38:09.256Z,17.27
2018-04-07T17:40:35.051Z,14.67
2018-04-07T17:43:00.858Z,14.87
2018-04-07T17:45:26.667Z,15.73
2018-04-07T17:47:52.465Z,17.83
2018-04-07T17:50:18.291Z,18.60
2018-04-07T17:52:44.361Z,19.40
2018-04-07T17:55:10.183Z,26.90
2018-04-07T17:57:35.966Z,14.43
2018-04-07T18:00:01.790Z,15.37
2018-04-07T18:02:27.565Z,15.23
2018-04-07T18:04:53.397Z,13.07
2018-04-07T18:07:19.215Z,27.90
2018-04-07T18:09:45.024Z,14.00
2018-04-07T18:12:10.810Z,18.20
2018-04-07T18:14:36.635Z,16.93
2018-04-07T18:17:02.601Z,31.83
2018-04-07T18:19:28.410Z,15.87
2018-04-07T18:21:54.332Z,18.90
2018-04-07T18:24:20.148Z,24.87
2018-04-07T18:26:45.952Z,14.60
2018-04-07T18:29:11.754Z,15.33
2018-04-07T18:31:37.536Z,30.80
2018-04-07T18:34:03.344Z,27.57
2018-04-07T18:36:29.146Z,27.60
2018-04-07T18:38:54.944Z,26.63
2018-04-07T18:41:20.772Z,30.13
2018-04-07T18:43:46.575Z,18.50
2018-04-07T18:46:12.374Z,21.50
2018-04-07T18:48:38.167Z,26.40
2018-04-07T18:51:03.975Z,33.63
2018-04-07T18:53:29.773Z,23.87
2018-04-07T18:55:55.594Z,36.60
2018-04-07T18:58:21.420Z,21.30
2018-04-07T19:00:47.237Z,24.73
2018-04-07T19:03:13.058Z,19.10
2018-04-07T19:05:38.853Z,21.67
2018-04-07T19:08:04.672Z,31.30
2018-04-07T19:10:30.499Z,28.83
2018-04-07T19:12:56.296Z,39.40
2018-04-07T19:15:22.099Z,30.60
2018-04-07T19:17:48.752Z,30.77
2018-04-07T19:20:14.545Z,27.20
2018-04-07T19:22:40.341Z,36.80
2018-04-07T19:25:06.148Z,31.47
2018-04-07T19:27:31.936Z,28.10
2018-04-07T19:29:57.743Z,35.90
2018-04-07T19:32:23.568Z,36.90
2018-04-07T19:34:49.359Z,36.70
2018-04-07T19:37:15.183Z,49.03
2018-04-07T19:39:40.974Z,37.17
2018-04-07T19:42:06.790Z,26.33
2018-04-07T19:44:32.597Z,40.43
2018-04-07T19:46:58.387Z,23.07
2018-04-07T19:49:24.190Z,67.37
2018-04-07T19:51:50.022Z,48.30
2018-04-07T19:54:15.794Z,51.00
2018-04-07T19:56:41.589Z,66.67
2018-04-07T19:59:07.390Z,53.17
2018-04-07T20:01:33.174Z,67.47
2018-04-07T20:03:58.979Z,66.57
2018-04-07T20:06:24.794Z,85.50
2018-04-07T20:08:50.601Z,72.00
2018-04-07T20:11:16.393Z,82.47
2018-04-07T20:13:42.187Z,53.50
2018-04-07T20:16:08.016Z,43.83
2018-04-07T20:18:33.824Z,57.43
2018-04-07T20:20:59.631Z,47.83
2018-04-07T20:23:25.430Z,45.07
2018-04-07T20:25:51.247Z,45.97
2018-04-07T20:28:17.052Z,50.90
2018-04-07T20:30:42.836Z,31.60
2018-04-07T20:33:08.654Z,28.37
2018-04-07T20:35:34.463Z,25.50
2018-04-07T20:38:00.261Z,29.47
2018-04-07T20:40:26.342Z,33.10
2018-04-07T20:42:52.159Z,24.63
2018-04-07T20:45:17.960Z,25.20
2018-04-07T20:47:44.042Z,24.70
2018-04-07T20:50:09.828Z,20.90
2018-04-07T20:52:35.680Z,29.03
2018-04-07T20:55:01.497Z,21.43
2018-04-07T20:57:27.280Z,23.00
2018-04-07T20:59:53.077Z,22.57
2018-04-07T21:02:18.867Z,21.90
2018-04-07T21:04:44.673Z,17.37
2018-04-07T21:07:10.487Z,14.97
2018-04-07T21:09:36.294Z,14.30
2018-04-07T21:12:02.215Z,17.70
2018-04-07T21:14:28.045Z,18.83
2018-04-07T21:16:53.880Z,32.63
2018-04-07T21:19:19.671Z,29.00
2018-04-07T21:21:45.463Z,21.10
2018-04-07T21:24:11.271Z,45.93
2018-04-07T21:26:37.064Z,89.37
2018-04-07T21:29:02.869Z,53.83
2018-04-07T21:31:28.807Z,46.20
2018-04-07T21:33:54.621Z,21.87
2018-04-07T21:36:20.398Z,18.17
2018-04-07T21:38:46.195Z,19.97
2018-04-07T21:41:12.006Z,43.17
2018-04-07T21:43:37.804Z,16.30
2018-04-07T21:46:03.604Z,59.53
2018-04-07T21:48:29.424Z,21.30
2018-04-07T21:50:55.243Z,21.53
2018-04-07T21:53:21.043Z,16.00
2018-04-07T21:55:46.854Z,16.50
2018-04-07T21:58:12.654Z,32.20
2018-04-07T22:00:38.452Z,43.17
2018-04-07T22:03:04.263Z,89.17
2018-04-07T22:05:30.055Z,46.63
2018-04-07T22:07:55.840Z,36.63
2018-04-07T22:10:21.659Z,30.90
2018-04-07T22:12:47.480Z,19.40
2018-04-07T22:15:13.331Z,27.27
2018-04-07T22:17:39.165Z,17.57
2018-04-07T22:20:04.995Z,86.77
2018-04-07T22:22:30.844Z,39.73
2018-04-07T22:24:56.657Z,18.80
2018-04-07T22:27:22.461Z,20.93
2018-04-07T22:29:48.243Z,21.63
2018-04-07T22:32:14.041Z,19.43
2018-04-07T22:34:39.833Z,28.63
2018-04-07T22:37:05.733Z,14.97
2018-04-07T22:39:31.545Z,16.93
2018-04-07T22:41:57.373Z,31.80
2018-04-07T22:44:23.414Z,16.40
2018-04-07T22:46:49.225Z,20.57
2018-04-07T22:49:15.025Z,35.03
2018-04-07T22:51:40.820Z,15.80
2018-04-07T22:54:06.603Z,15.07
2018-04-07T22:56:32.399Z,20.13
2018-04-07T22:58:58.188Z,26.67
2018-04-07T23:01:23.992Z,22.60
2018-04-07T23:03:49.972Z,39.70
2018-04-07T23:06:15.760Z,42.13
2018-04-07T23:08:41.549Z,20.80
2018-04-07T23:11:07.347Z,12.90
2018-04-07T23:13:33.163Z,35.23
2018-04-07T23:15:58.962Z,17.43
2018-04-07T23:18:24.988Z,21.67
2018-04-07T23:20:50.809Z,13.07
2018-04-07T23:23:16.622Z,26.40
2018-04-07T23:25:42.675Z,26.43
2018-04-07T23:28:08.495Z,23.67
2018-04-07T23:30:34.310Z,13.43
2018-04-07T23:33:00.140Z,19.77
2018-04-07T23:35:25.932Z,13.50
2018-04-07T23:37:53.001Z,27.93
2018-04-07T23:40:19.988Z,14.13
2018-04-07T23:42:46.519Z,26.77
2018-04-07T23:45:13.744Z,12.80
2018-04-07T23:47:40.535Z,14.90
2018-04-07T23:50:07.159Z,16.27
2018-04-07T23:52:34.003Z,16.07
2018-04-07T23:55:00.604Z,20.20
2018-04-07T23:57:27.494Z,14.53
2018-04-07T23:59:53.403Z,16.47
